createdAt,value
2018-01-28T05:00:43.834Z,0
2018-01-28T05:01:09.286Z,0
2018-01-28T05:01:34.779Z,0
2018-01-28T05:02:00.245Z,0
2018-01-28T05:02:25.758Z,0
2018-01-28T05:02:51.257Z,0
2018-01-28T05:03:16.710Z,0
2018-01-28T05:03:42.193Z,0
2018-01-28T05:04:07.702Z,0
2018-01-28T05:04:33.197Z,0
2018-01-28T05:04:58.694Z,0
2018-01-28T05:05:24.151Z,0
2018-01-28T05:05:49.635Z,0
2018-01-28T05:06:15.137Z,0
2018-01-28T05:06:40.681Z,0
2018-01-28T05:07:06.214Z,0
2018-01-28T05:08:25.122Z,0
2018-01-28T05:08:50.632Z,0
2018-01-28T05:09:16.060Z,0
2018-01-28T05:09:41.637Z,0
2018-01-28T05:10:07.163Z,0
2018-01-28T05:10:32.671Z,0
2018-01-28T05:10:58.088Z,0
2018-01-28T05:11:23.608Z,0
2018-01-28T05:11:49.093Z,0
2018-01-28T05:12:14.558Z,0
2018-01-28T05:12:40.032Z,0
2018-01-28T05:13:05.511Z,0
2018-01-28T05:13:31.022Z,0
2018-01-28T05:13:56.537Z,0
2018-01-28T05:14:21.988Z,0
2018-01-28T05:14:47.418Z,0
2018-01-28T05:16:04.701Z,0
2018-01-28T05:16:30.195Z,0
2018-01-28T05:16:55.700Z,0
2018-01-28T05:17:21.208Z,0
2018-01-28T05:17:46.704Z,0
2018-01-28T05:18:12.160Z,0
2018-01-28T05:18:37.669Z,0
2018-01-28T05:19:03.145Z,0
2018-01-28T05:19:28.650Z,0
2018-01-28T05:19:54.095Z,0
2018-01-28T05:20:19.676Z,0
2018-01-28T05:20:45.180Z,0
2018-01-28T05:21:10.703Z,0
2018-01-28T05:21:36.191Z,0
2018-01-28T05:22:01.662Z,0
2018-01-28T05:22:27.180Z,0
2018-01-28T05:22:52.618Z,0
2018-01-28T05:23:18.108Z,0
2018-01-28T05:23:43.599Z,0
2018-01-28T05:24:09.077Z,0
2018-01-28T05:24:34.537Z,0
2018-01-28T05:24:59.996Z,0
2018-01-28T05:25:25.493Z,0
2018-01-28T05:25:51.010Z,0
2018-01-28T05:26:16.460Z,0
2018-01-28T05:26:41.973Z,0
2018-01-28T05:27:07.421Z,0
2018-01-28T05:27:32.939Z,0
2018-01-28T05:27:58.478Z,0
2018-01-28T05:28:23.867Z,0
2018-01-28T05:28:49.362Z,0
2018-01-28T05:29:14.820Z,0
2018-01-28T05:29:40.428Z,0
2018-01-28T05:30:05.900Z,0
2018-01-28T05:30:31.395Z,0
2018-01-28T05:30:56.866Z,0
2018-01-28T05:31:22.312Z,0
2018-01-28T05:31:47.807Z,0
2018-01-28T05:32:13.282Z,0
2018-01-28T05:32:38.756Z,0
2018-01-28T05:33:04.236Z,0
2018-01-28T05:33:29.701Z,0
2018-01-28T05:33:55.178Z,0
2018-01-28T05:34:20.664Z,0
2018-01-28T05:34:46.158Z,0
2018-01-28T05:36:05.048Z,0
2018-01-28T05:36:30.665Z,0
2018-01-28T05:36:56.152Z,0
2018-01-28T05:37:21.632Z,0
2018-01-28T05:37:47.117Z,0
2018-01-28T05:38:12.593Z,0
2018-01-28T05:38:38.085Z,0
2018-01-28T05:39:03.634Z,0
2018-01-28T05:40:17.445Z,0
2018-01-28T05:40:42.844Z,0
2018-01-28T05:41:56.659Z,0
2018-01-28T05:42:22.156Z,0
2018-01-28T05:42:47.630Z,0
2018-01-28T05:43:13.151Z,0
2018-01-28T05:43:38.661Z,0
2018-01-28T05:44:04.091Z,0
2018-01-28T05:44:29.570Z,0
2018-01-28T05:44:55.064Z,0
2018-01-28T05:45:20.559Z,0
2018-01-28T05:46:28.761Z,0
2018-01-28T05:46:54.268Z,0
2018-01-28T05:47:19.755Z,0
2018-01-28T05:47:45.260Z,0
2018-01-28T05:48:10.721Z,0
2018-01-28T05:49:29.641Z,0
2018-01-28T05:49:55.131Z,0
2018-01-28T05:50:20.629Z,0
2018-01-28T05:50:46.102Z,0
2018-01-28T05:51:11.626Z,0
2018-01-28T05:51:37.056Z,0
2018-01-28T05:52:02.536Z,0
2018-01-28T05:52:27.991Z,0
2018-01-28T05:52:53.454Z,0
2018-01-28T05:53:18.969Z,0
2018-01-28T05:53:44.466Z,0
2018-01-28T05:54:09.946Z,0
2018-01-28T05:54:35.441Z,0
2018-01-28T05:55:00.915Z,0
2018-01-28T05:55:26.391Z,0
2018-01-28T05:55:51.865Z,0
2018-01-28T05:56:17.342Z,0
2018-01-28T05:56:42.798Z,0
2018-01-28T05:57:08.338Z,0
2018-01-28T05:57:33.795Z,0
2018-01-28T05:57:59.304Z,0
2018-01-28T05:58:24.801Z,0
2018-01-28T05:58:50.301Z,0
2018-01-28T05:59:15.764Z,0
2018-01-28T05:59:41.233Z,0
2018-01-28T06:01:00.157Z,0
2018-01-28T06:02:19.127Z,0
2018-01-28T06:02:44.624Z,0
2018-01-28T06:03:10.126Z,0
2018-01-28T06:03:35.674Z,0
2018-01-28T06:04:01.096Z,0
2018-01-28T06:04:26.587Z,0
2018-01-28T06:04:52.116Z,0
2018-01-28T06:05:17.575Z,0
2018-01-28T06:05:43.163Z,0
2018-01-28T06:06:08.616Z,0
2018-01-28T06:06:34.078Z,0
2018-01-28T06:06:59.595Z,0
2018-01-28T06:07:25.096Z,0
2018-01-28T06:07:50.567Z,0
2018-01-28T06:08:16.021Z,0
2018-01-28T06:08:41.493Z,0
2018-01-28T06:09:06.957Z,0
2018-01-28T06:09:32.474Z,0
2018-01-28T06:09:57.962Z,0
2018-01-28T06:10:23.467Z,0
2018-01-28T06:10:49.006Z,0
2018-01-28T06:11:14.457Z,0
2018-01-28T06:11:39.922Z,0
2018-01-28T06:12:05.404Z,0
2018-01-28T06:12:30.861Z,0
2018-01-28T06:13:44.648Z,0
2018-01-28T06:14:10.136Z,0
2018-01-28T06:14:35.643Z,0
2018-01-28T06:15:01.146Z,0
2018-01-28T06:15:26.596Z,0
2018-01-28T06:15:52.114Z,0
2018-01-28T06:16:17.588Z,0
2018-01-28T06:16:43.086Z,0
2018-01-28T06:17:08.609Z,0
2018-01-28T06:17:34.066Z,0
2018-01-28T06:17:59.594Z,0
2018-01-28T06:18:25.079Z,0
2018-01-28T06:18:50.556Z,0
2018-01-28T06:19:16.049Z,0
2018-01-28T06:19:41.590Z,0
2018-01-28T06:20:07.083Z,0
2018-01-28T06:20:32.560Z,0
2018-01-28T06:20:58.049Z,0
2018-01-28T06:21:23.540Z,0
2018-01-28T06:21:49.036Z,0
2018-01-28T06:22:14.496Z,0
2018-01-28T06:22:39.980Z,0
2018-01-28T06:23:05.461Z,0
2018-01-28T06:23:30.947Z,0
2018-01-28T06:23:56.426Z,0
2018-01-28T06:24:21.910Z,0
2018-01-28T06:24:47.428Z,0
2018-01-28T06:25:12.892Z,0
2018-01-28T06:25:38.383Z,0
2018-01-28T06:26:03.845Z,0
2018-01-28T06:26:29.388Z,0
2018-01-28T06:26:54.930Z,0
2018-01-28T06:27:20.435Z,0
2018-01-28T06:27:45.953Z,0
2018-01-28T06:28:11.453Z,0
2018-01-28T06:28:36.962Z,0
2018-01-28T06:29:02.470Z,0
2018-01-28T06:29:27.947Z,0
2018-01-28T06:29:53.431Z,0
2018-01-28T06:31:06.734Z,0
2018-01-28T06:31:32.240Z,0
2018-01-28T06:31:57.724Z,0
2018-01-28T06:32:23.251Z,0
2018-01-28T06:32:48.725Z,0
2018-01-28T06:33:14.195Z,0
2018-01-28T06:33:39.690Z,0
2018-01-28T06:34:58.569Z,0
2018-01-28T06:35:24.068Z,0
2018-01-28T06:35:49.626Z,0
2018-01-28T06:36:15.085Z,0
2018-01-28T06:36:40.571Z,0
2018-01-28T06:37:06.077Z,0
2018-01-28T06:37:31.563Z,0
2018-01-28T06:38:45.359Z,0
2018-01-28T06:39:10.844Z,0
2018-01-28T06:39:36.330Z,0
2018-01-28T06:41:05.428Z,0
2018-01-28T06:41:30.949Z,0
2018-01-28T06:41:56.505Z,0
2018-01-28T06:42:21.937Z,0
2018-01-28T06:42:47.470Z,0
2018-01-28T06:43:12.958Z,0
2018-01-28T06:43:38.466Z,0
2018-01-28T06:44:03.989Z,0
2018-01-28T06:44:29.557Z,0
2018-01-28T06:44:55.086Z,0
2018-01-28T06:45:20.572Z,0
2018-01-28T06:45:46.031Z,0
2018-01-28T06:46:11.516Z,0
2018-01-28T06:46:36.996Z,0
2018-01-28T06:47:02.492Z,0
2018-01-28T06:48:26.546Z,0
2018-01-28T06:48:52.054Z,0
2018-01-28T06:49:17.545Z,0
2018-01-28T06:49:43.014Z,0
2018-01-28T06:50:08.517Z,0
2018-01-28T06:50:34.034Z,0
2018-01-28T06:50:59.522Z,0
2018-01-28T06:51:25.017Z,0
2018-01-28T06:51:50.603Z,0
2018-01-28T06:53:09.538Z,0
2018-01-28T06:53:35.073Z,0
2018-01-28T06:54:00.552Z,0
2018-01-28T06:54:26.038Z,0
2018-01-28T06:54:51.514Z,0
2018-01-28T06:55:16.991Z,0
2018-01-28T06:55:42.484Z,0
2018-01-28T06:56:08.023Z,0
2018-01-28T06:56:33.559Z,0
2018-01-28T06:56:59.036Z,0
2018-01-28T06:57:24.599Z,0
2018-01-28T06:57:50.080Z,0
2018-01-28T06:58:15.523Z,0
2018-01-28T06:58:40.981Z,0
2018-01-28T06:59:06.524Z,0
2018-01-28T06:59:32.061Z,0
2018-01-28T07:00:56.091Z,0
2018-01-28T07:01:21.610Z,0
2018-01-28T07:01:47.122Z,0
2018-01-28T07:02:12.549Z,0
2018-01-28T07:02:38.047Z,0
2018-01-28T07:03:03.533Z,0
2018-01-28T07:03:29.030Z,0
2018-01-28T07:03:54.543Z,0
2018-01-28T07:04:20.040Z,0
2018-01-28T07:04:45.567Z,0
2018-01-28T07:05:11.055Z,0
2018-01-28T07:05:36.536Z,0
2018-01-28T07:06:02.074Z,0
2018-01-28T07:06:27.653Z,0
2018-01-28T07:06:53.131Z,0
2018-01-28T07:07:18.616Z,0
2018-01-28T07:07:44.138Z,0
2018-01-28T07:08:09.701Z,0
2018-01-28T07:08:35.255Z,0
2018-01-28T07:09:49.052Z,0
2018-01-28T07:10:14.535Z,0
2018-01-28T07:10:40.063Z,0
2018-01-28T07:11:05.566Z,0
2018-01-28T07:11:31.054Z,0
2018-01-28T07:11:56.551Z,0
2018-01-28T07:13:10.343Z,0
2018-01-28T07:13:35.834Z,0
2018-01-28T07:14:01.301Z,0
2018-01-28T07:15:25.398Z,0
2018-01-28T07:15:50.902Z,0
2018-01-28T07:16:16.366Z,0
2018-01-28T07:16:41.857Z,0
2018-01-28T07:17:50.601Z,0
2018-01-28T07:18:16.082Z,0
2018-01-28T07:18:41.575Z,0
2018-01-28T07:19:07.049Z,0
2018-01-28T07:19:32.540Z,0
2018-01-28T07:19:58.047Z,0
2018-01-28T07:20:23.525Z,0
2018-01-28T07:20:49.012Z,0
2018-01-28T07:21:14.484Z,0
2018-01-28T07:21:39.962Z,0
2018-01-28T07:22:05.473Z,0
2018-01-28T07:22:30.976Z,0
2018-01-28T07:22:56.442Z,0
2018-01-28T07:23:21.985Z,0
2018-01-28T07:23:47.638Z,0
2018-01-28T07:24:13.017Z,0
2018-01-28T07:24:38.498Z,0
2018-01-28T07:25:04.157Z,0
2018-01-28T07:25:29.533Z,0
2018-01-28T07:25:55.026Z,0
2018-01-28T07:26:20.550Z,0
2018-01-28T07:26:46.057Z,0
2018-01-28T07:27:11.676Z,0
2018-01-28T07:27:37.134Z,0
2018-01-28T07:28:02.876Z,0
2018-01-28T07:28:28.432Z,0
2018-01-28T07:28:54.137Z,0
2018-01-28T07:29:19.741Z,0
2018-01-28T07:29:45.347Z,0
2018-01-28T07:30:10.843Z,0
2018-01-28T07:30:36.425Z,0
2018-01-28T07:31:02.004Z,0
2018-01-28T07:31:27.464Z,0
2018-01-28T07:31:53.172Z,0
2018-01-28T07:32:19.699Z,0
2018-01-28T07:32:45.127Z,0
2018-01-28T07:33:10.598Z,5
2018-01-28T07:33:36.045Z,5
2018-01-28T07:34:01.556Z,5
2018-01-28T07:34:27.029Z,5
2018-01-28T07:35:40.815Z,0
2018-01-28T07:36:06.306Z,0
2018-01-28T07:36:31.803Z,0
2018-01-28T07:36:57.305Z,0
2018-01-28T07:37:22.792Z,0
2018-01-28T07:37:48.293Z,0
2018-01-28T07:38:13.814Z,0
2018-01-28T07:38:39.360Z,0
2018-01-28T07:39:04.849Z,0
2018-01-28T07:39:30.390Z,0
2018-01-28T07:39:55.868Z,0
2018-01-28T07:40:21.351Z,0
2018-01-28T07:40:46.839Z,0
2018-01-28T07:41:12.328Z,5
2018-01-28T07:41:37.829Z,5
2018-01-28T07:42:03.400Z,5
2018-01-28T07:42:29.015Z,5
2018-01-28T07:42:54.494Z,5
2018-01-28T07:43:20.016Z,5
2018-01-28T07:43:45.530Z,10
2018-01-28T07:44:11.019Z,10
2018-01-28T07:44:36.539Z,10
2018-01-28T07:45:02.019Z,10
2018-01-28T07:45:27.609Z,10
2018-01-28T07:45:53.487Z,10
2018-01-28T07:46:19.133Z,10
2018-01-28T07:46:44.579Z,5
2018-01-28T07:47:10.048Z,5
2018-01-28T07:47:35.560Z,5
2018-01-28T07:48:01.199Z,5
2018-01-28T07:49:20.108Z,5
2018-01-28T07:49:45.618Z,5
2018-01-28T07:50:11.109Z,5
2018-01-28T07:50:36.600Z,5
2018-01-28T07:51:02.124Z,5
2018-01-28T07:51:27.616Z,5
2018-01-28T07:51:53.103Z,5
2018-01-28T07:53:01.798Z,5
2018-01-28T07:53:27.287Z,10
2018-01-28T07:53:52.816Z,15
2018-01-28T07:54:18.314Z,15
2018-01-28T07:54:43.770Z,10
2018-01-28T07:55:09.291Z,10
2018-01-28T07:55:34.825Z,15
2018-01-28T07:56:00.248Z,10
2018-01-28T07:56:25.865Z,10
2018-01-28T07:56:51.388Z,15
2018-01-28T07:57:16.853Z,10
2018-01-28T07:57:42.382Z,15
2018-01-28T07:58:07.913Z,15
2018-01-28T07:58:33.402Z,10
2018-01-28T07:58:58.934Z,10
2018-01-28T07:59:24.518Z,10
2018-01-28T07:59:49.948Z,10
2018-01-28T08:00:15.452Z,10
2018-01-28T08:00:40.964Z,10
2018-01-28T08:01:06.482Z,10
2018-01-28T08:01:31.937Z,10
2018-01-28T08:01:57.418Z,10
2018-01-28T08:02:22.901Z,10
2018-01-28T08:02:48.378Z,10
2018-01-28T08:03:13.896Z,15
2018-01-28T08:03:39.403Z,15
2018-01-28T08:04:04.897Z,20
2018-01-28T08:04:30.370Z,20
2018-01-28T08:04:55.833Z,20
2018-01-28T08:05:21.356Z,25
2018-01-28T08:05:46.916Z,25
2018-01-28T08:06:12.402Z,15
2018-01-28T08:06:37.900Z,15
2018-01-28T08:08:07.579Z,10
2018-01-28T08:08:32.839Z,5
2018-01-28T08:08:58.342Z,5
2018-01-28T08:09:23.856Z,5
2018-01-28T08:09:49.361Z,5
2018-01-28T08:10:14.859Z,5
2018-01-28T08:10:40.426Z,5
2018-01-28T08:11:05.940Z,10
2018-01-28T08:11:31.411Z,10
2018-01-28T08:11:56.885Z,10
2018-01-28T08:12:22.397Z,15
2018-01-28T08:12:47.902Z,15
2018-01-28T08:13:13.375Z,15
2018-01-28T08:13:38.923Z,20
2018-01-28T08:14:04.394Z,15
2018-01-28T08:14:29.846Z,20
2018-01-28T08:14:55.375Z,15
2018-01-28T08:15:20.866Z,20
2018-01-28T08:15:46.364Z,20
2018-01-28T08:16:11.936Z,20
2018-01-28T08:16:37.430Z,20
2018-01-28T08:17:02.957Z,20
2018-01-28T08:17:28.471Z,20
2018-01-28T08:17:54.003Z,20
2018-01-28T08:18:19.507Z,20
2018-01-28T08:18:44.998Z,20
2018-01-28T08:19:10.498Z,20
2018-01-28T08:19:35.989Z,20
2018-01-28T08:20:01.447Z,25
2018-01-28T08:20:26.995Z,25
2018-01-28T08:20:52.467Z,25
2018-01-28T08:21:17.963Z,30
2018-01-28T08:21:43.440Z,30
2018-01-28T08:22:08.993Z,30
2018-01-28T08:22:34.492Z,25
2018-01-28T08:22:59.937Z,30
2018-01-28T08:23:25.426Z,30
2018-01-28T08:23:50.933Z,25
2018-01-28T08:24:16.386Z,25
2018-01-28T08:24:41.856Z,25
2018-01-28T08:25:07.291Z,30
2018-01-28T08:25:32.778Z,30
2018-01-28T08:25:58.291Z,25
2018-01-28T08:26:23.812Z,25
2018-01-28T08:26:49.334Z,25
2018-01-28T08:27:14.826Z,25
2018-01-28T08:27:40.327Z,25
2018-01-28T08:28:05.847Z,30
2018-01-28T08:28:31.317Z,35
2018-01-28T08:28:56.804Z,40
2018-01-28T08:29:22.356Z,45
2018-01-28T08:29:47.816Z,45
2018-01-28T08:30:13.293Z,35
2018-01-28T08:30:38.748Z,30
2018-01-28T08:31:04.267Z,25
2018-01-28T08:31:29.912Z,30
2018-01-28T08:31:55.357Z,30
2018-01-28T08:32:20.851Z,30
2018-01-28T08:32:46.328Z,30
2018-01-28T08:33:11.847Z,25
2018-01-28T08:33:37.330Z,25
2018-01-28T08:34:02.841Z,25
2018-01-28T08:34:28.364Z,20
2018-01-28T08:34:53.823Z,25
2018-01-28T08:35:19.319Z,25
2018-01-28T08:35:44.798Z,25
2018-01-28T08:36:10.283Z,20
2018-01-28T08:36:35.757Z,15
2018-01-28T08:37:01.288Z,15
2018-01-28T08:37:26.776Z,15
2018-01-28T08:37:52.458Z,15
2018-01-28T08:38:17.861Z,15
2018-01-28T08:38:43.333Z,15
2018-01-28T08:39:57.129Z,15
2018-01-28T08:40:22.631Z,15
2018-01-28T08:40:48.097Z,10
2018-01-28T08:41:13.600Z,10
2018-01-28T08:41:39.081Z,15
2018-01-28T08:42:58.020Z,20
2018-01-28T08:43:23.498Z,20
2018-01-28T08:43:49.027Z,25
2018-01-28T08:44:14.522Z,25
2018-01-28T08:44:40.029Z,25
2018-01-28T08:45:05.519Z,25
2018-01-28T08:45:31.032Z,20
2018-01-28T08:45:56.507Z,20
2018-01-28T08:46:22.011Z,20
2018-01-28T08:46:47.483Z,20
2018-01-28T08:47:12.968Z,20
2018-01-28T08:47:38.448Z,20
2018-01-28T08:48:47.131Z,20
2018-01-28T08:49:12.654Z,20
2018-01-28T08:49:38.115Z,20
2018-01-28T08:50:03.565Z,20
2018-01-28T08:50:29.076Z,20
2018-01-28T08:50:54.607Z,20
2018-01-28T08:52:13.504Z,25
2018-01-28T08:52:38.987Z,25
2018-01-28T08:53:04.509Z,30
2018-01-28T08:53:29.983Z,30
2018-01-28T08:53:55.502Z,25
2018-01-28T08:54:21.099Z,25
2018-01-28T08:54:46.587Z,25
2018-01-28T08:55:12.093Z,25
2018-01-28T08:56:20.798Z,25
2018-01-28T08:56:46.291Z,30
2018-01-28T08:57:11.788Z,35
2018-01-28T08:57:37.251Z,35
2018-01-28T08:58:02.741Z,35
2018-01-28T08:58:28.304Z,35
2018-01-28T09:00:10.128Z,30
2018-01-28T09:00:37.562Z,30
2018-01-28T09:01:06.294Z,30
2018-01-28T09:01:32.272Z,35
2018-01-28T09:01:57.755Z,35
2018-01-28T09:02:23.251Z,40
2018-01-28T09:02:48.772Z,40
2018-01-28T09:03:14.343Z,40
2018-01-28T09:03:39.715Z,40
2018-01-28T09:04:06.137Z,40
2018-01-28T09:04:32.908Z,35
2018-01-28T09:04:57.401Z,35
2018-01-28T09:05:23.023Z,35
2018-01-28T09:05:48.462Z,35
2018-01-28T09:06:15.328Z,35
2018-01-28T09:07:25.124Z,35
2018-01-28T09:07:51.210Z,45
2018-01-28T09:08:16.630Z,45
2018-01-28T09:08:42.034Z,40
2018-01-28T09:09:07.782Z,45
2018-01-28T09:09:33.245Z,45
2018-01-28T09:09:59.413Z,40
2018-01-28T09:10:24.847Z,40
2018-01-28T09:10:50.659Z,45
2018-01-28T09:11:16.782Z,40
2018-01-28T09:11:41.581Z,40
2018-01-28T09:12:07.106Z,40
2018-01-28T09:12:32.615Z,40
2018-01-28T09:12:58.151Z,40
2018-01-28T09:13:23.557Z,40
2018-01-28T09:13:49.026Z,40
2018-01-28T09:14:14.459Z,40
2018-01-28T09:14:40.027Z,35
2018-01-28T09:15:06.220Z,35
2018-01-28T09:15:31.755Z,35
2018-01-28T09:15:59.972Z,30
2018-01-28T09:16:25.061Z,35
2018-01-28T09:16:50.372Z,35
2018-01-28T09:17:15.906Z,35
2018-01-28T09:17:41.655Z,30
2018-01-28T09:18:07.181Z,30
2018-01-28T09:18:32.650Z,30
2018-01-28T09:18:58.241Z,30
2018-01-28T09:19:23.756Z,35
2018-01-28T09:19:49.263Z,35
2018-01-28T09:20:14.793Z,35
2018-01-28T09:20:40.221Z,40
2018-01-28T09:21:05.650Z,35
2018-01-28T09:21:31.125Z,35
2018-01-28T09:21:56.618Z,35
2018-01-28T09:22:22.389Z,30
2018-01-28T09:22:47.878Z,25
2018-01-28T09:23:13.411Z,25
2018-01-28T09:23:39.053Z,25
2018-01-28T09:24:04.457Z,30
2018-01-28T09:24:30.054Z,35
2018-01-28T09:24:55.780Z,30
2018-01-28T09:25:21.233Z,30
2018-01-28T09:25:55.254Z,25
2018-01-28T09:26:21.465Z,25
2018-01-28T09:26:46.868Z,30
2018-01-28T09:27:12.747Z,30
2018-01-28T09:27:38.317Z,30
2018-01-28T09:28:03.902Z,30
2018-01-28T09:28:33.134Z,25
2018-01-28T09:28:58.462Z,25
2018-01-28T09:29:24.003Z,25
2018-01-28T09:29:49.479Z,25
2018-01-28T09:30:15.010Z,25
2018-01-28T09:30:40.489Z,25
2018-01-28T09:31:05.987Z,25
2018-01-28T09:31:31.477Z,20
2018-01-28T09:31:57.078Z,25
2018-01-28T09:32:22.544Z,25
2018-01-28T09:32:48.082Z,25
2018-01-28T09:33:13.588Z,25
2018-01-28T09:33:39.168Z,25
2018-01-28T09:34:04.694Z,30
2018-01-28T09:34:30.150Z,35
2018-01-28T09:34:55.698Z,40
2018-01-28T09:35:21.188Z,40
2018-01-28T09:35:46.748Z,35
2018-01-28T09:36:12.177Z,40
2018-01-28T09:36:37.687Z,40
2018-01-28T09:37:03.195Z,50
2018-01-28T09:37:28.675Z,45
2018-01-28T09:37:54.155Z,40
2018-01-28T09:38:19.650Z,40
2018-01-28T09:38:45.152Z,40
2018-01-28T09:39:10.638Z,40
2018-01-28T09:39:36.109Z,40
2018-01-28T09:40:01.596Z,40
2018-01-28T09:40:27.189Z,35
2018-01-28T09:41:40.988Z,35
2018-01-28T09:42:06.494Z,35
2018-01-28T09:42:31.955Z,35
2018-01-28T09:42:57.491Z,30
2018-01-28T09:43:23.083Z,30
2018-01-28T09:43:48.560Z,35
2018-01-28T09:44:14.094Z,40
2018-01-28T09:44:39.580Z,45
2018-01-28T09:46:08.663Z,40
2018-01-28T09:46:34.152Z,45
2018-01-28T09:46:59.647Z,45
2018-01-28T09:47:25.146Z,50
2018-01-28T09:47:50.636Z,50
2018-01-28T09:48:16.158Z,45
2018-01-28T09:48:41.649Z,45
2018-01-28T09:49:07.123Z,55
2018-01-28T09:49:32.637Z,65
2018-01-28T09:49:58.128Z,65
2018-01-28T09:50:23.593Z,65
2018-01-28T09:50:49.100Z,60
2018-01-28T09:51:14.603Z,65
2018-01-28T09:51:40.104Z,65
2018-01-28T09:52:05.621Z,55
2018-01-28T09:52:31.112Z,55
2018-01-28T09:52:56.630Z,50
2018-01-28T09:53:22.133Z,50
2018-01-28T09:53:47.604Z,55
2018-01-28T09:54:13.077Z,60
2018-01-28T09:54:38.565Z,60
2018-01-28T09:55:04.041Z,70
2018-01-28T09:55:29.569Z,65
2018-01-28T09:55:55.047Z,65
2018-01-28T09:56:20.543Z,65
2018-01-28T09:56:46.035Z,55
2018-01-28T09:57:11.559Z,55
2018-01-28T09:57:37.095Z,50
2018-01-28T09:58:50.905Z,55
2018-01-28T09:59:16.375Z,60
2018-01-28T09:59:41.904Z,70
2018-01-28T10:00:07.413Z,70
2018-01-28T10:00:32.900Z,70
2018-01-28T10:00:58.455Z,75
2018-01-28T10:01:23.947Z,80
2018-01-28T10:01:49.395Z,75
2018-01-28T10:02:14.885Z,75
2018-01-28T10:02:40.368Z,80
2018-01-28T10:03:05.836Z,75
2018-01-28T10:03:31.337Z,80
2018-01-28T10:03:56.995Z,70
2018-01-28T10:04:22.459Z,65
2018-01-28T10:04:47.916Z,70
2018-01-28T10:05:13.518Z,75
2018-01-28T10:05:39.011Z,55
2018-01-28T10:06:04.518Z,60
2018-01-28T10:06:30.070Z,55
2018-01-28T10:06:55.640Z,50
2018-01-28T10:07:21.168Z,55
2018-01-28T10:07:46.670Z,60
2018-01-28T10:08:12.161Z,55
2018-01-28T10:08:37.725Z,50
2018-01-28T10:09:03.148Z,45
2018-01-28T10:09:28.669Z,45
2018-01-28T10:09:54.168Z,40
2018-01-28T10:10:19.673Z,45
2018-01-28T10:10:45.235Z,50
2018-01-28T10:11:10.755Z,45
2018-01-28T10:11:36.255Z,50
2018-01-28T10:12:01.769Z,60
2018-01-28T10:12:27.276Z,65
2018-01-28T10:12:52.791Z,60
2018-01-28T10:13:18.318Z,60
2018-01-28T10:13:43.890Z,65
2018-01-28T10:14:09.397Z,70
2018-01-28T10:14:34.883Z,80
2018-01-28T10:15:00.408Z,85
2018-01-28T10:15:25.932Z,95
2018-01-28T10:15:51.450Z,85
2018-01-28T10:16:16.981Z,85
2018-01-28T10:16:42.438Z,80
2018-01-28T10:17:07.945Z,75
2018-01-28T10:17:33.454Z,75
2018-01-28T10:17:58.928Z,65
2018-01-28T10:19:07.630Z,70
2018-01-28T10:19:33.165Z,80
2018-01-28T10:19:58.636Z,75
2018-01-28T10:20:24.149Z,65
2018-01-28T10:21:43.111Z,85
2018-01-28T10:22:08.580Z,90
2018-01-28T10:22:34.038Z,90
2018-01-28T10:22:59.531Z,90
2018-01-28T10:23:25.009Z,75
2018-01-28T10:23:50.523Z,65
2018-01-28T10:24:16.022Z,60
2018-01-28T10:24:41.522Z,65
2018-01-28T10:25:07.024Z,65
2018-01-28T10:25:32.549Z,55
2018-01-28T10:25:58.064Z,50
2018-01-28T10:26:23.568Z,45
2018-01-28T10:26:49.046Z,45
2018-01-28T10:27:14.572Z,50
2018-01-28T10:27:40.090Z,65
2018-01-28T10:28:05.639Z,55
2018-01-28T10:28:31.156Z,70
2018-01-28T10:28:56.688Z,65
2018-01-28T10:29:22.260Z,70
2018-01-28T10:29:47.731Z,75
2018-01-28T10:30:13.208Z,80
2018-01-28T10:30:38.782Z,65
2018-01-28T10:31:04.303Z,85
2018-01-28T10:31:29.840Z,85
2018-01-28T10:31:55.373Z,100
2018-01-28T10:32:20.787Z,95
2018-01-28T10:32:46.289Z,90
2018-01-28T10:33:11.771Z,80
2018-01-28T10:33:37.284Z,70
2018-01-28T10:34:02.772Z,60
2018-01-28T10:34:28.252Z,90
2018-01-28T10:34:53.838Z,115
2018-01-28T10:35:19.286Z,110
2018-01-28T10:35:44.813Z,125
2018-01-28T10:36:10.346Z,90
2018-01-28T10:36:35.829Z,80
2018-01-28T10:37:01.300Z,75
2018-01-28T10:37:26.769Z,70
2018-01-28T10:37:52.242Z,90
2018-01-28T10:38:17.747Z,85
2018-01-28T10:38:43.189Z,60
2018-01-28T10:39:08.732Z,70
2018-01-28T10:39:34.199Z,80
2018-01-28T10:39:59.642Z,80
2018-01-28T10:40:25.110Z,90
2018-01-28T10:41:44.355Z,105
2018-01-28T10:42:09.631Z,100
2018-01-28T10:42:35.096Z,80
2018-01-28T10:43:00.598Z,80
2018-01-28T10:43:26.127Z,80
2018-01-28T10:43:51.678Z,75
2018-01-28T10:44:17.194Z,70
2018-01-28T10:44:42.687Z,65
2018-01-28T10:45:08.196Z,65
2018-01-28T10:45:33.731Z,70
2018-01-28T10:45:59.229Z,75
2018-01-28T10:46:24.766Z,65
2018-01-28T10:46:50.297Z,65
2018-01-28T10:47:15.804Z,90
2018-01-28T10:48:34.748Z,70
2018-01-28T10:49:00.233Z,70
2018-01-28T10:49:25.755Z,65
2018-01-28T10:49:51.253Z,60
2018-01-28T10:50:16.752Z,75
2018-01-28T10:50:42.195Z,80
2018-01-28T10:51:07.711Z,70
2018-01-28T10:51:33.219Z,70
2018-01-28T10:51:58.679Z,80
2018-01-28T10:52:24.610Z,70
2018-01-28T10:52:50.137Z,55
2018-01-28T10:53:15.614Z,45
2018-01-28T10:53:41.134Z,45
2018-01-28T10:54:06.639Z,50
2018-01-28T10:55:30.607Z,60
2018-01-28T10:55:56.116Z,50
2018-01-28T10:56:21.576Z,55
2018-01-28T10:56:47.073Z,55
2018-01-28T10:57:12.571Z,45
2018-01-28T10:57:38.038Z,45
2018-01-28T10:58:03.506Z,50
2018-01-28T10:58:29.027Z,65
2018-01-28T10:58:54.468Z,60
2018-01-28T10:59:19.939Z,65
2018-01-28T10:59:45.542Z,65
2018-01-28T11:00:10.878Z,60
2018-01-28T11:00:36.344Z,60
2018-01-28T11:01:01.867Z,70
2018-01-28T11:01:27.322Z,95
2018-01-28T11:01:52.863Z,95
2018-01-28T11:02:18.325Z,85
2018-01-28T11:02:43.779Z,95
2018-01-28T11:03:09.227Z,90
2018-01-28T11:03:34.735Z,85
2018-01-28T11:04:00.220Z,125
2018-01-28T11:04:25.684Z,115
2018-01-28T11:04:51.226Z,100
2018-01-28T11:05:16.745Z,85
2018-01-28T11:05:42.212Z,90
2018-01-28T11:06:07.701Z,80
2018-01-28T11:06:33.135Z,65
2018-01-28T11:06:58.609Z,75
2018-01-28T11:07:24.141Z,85
2018-01-28T11:07:49.665Z,90
2018-01-28T11:08:15.116Z,80
2018-01-28T11:08:40.597Z,85
2018-01-28T11:09:06.164Z,90
2018-01-28T11:09:31.643Z,115
2018-01-28T11:09:57.182Z,135
2018-01-28T11:10:22.620Z,135
2018-01-28T11:10:48.085Z,115
2018-01-28T11:11:13.562Z,120
2018-01-28T11:11:39.081Z,120
2018-01-28T11:12:04.549Z,95
2018-01-28T11:12:30.062Z,85
2018-01-28T11:12:55.540Z,90
2018-01-28T11:13:21.036Z,105
2018-01-28T11:13:46.504Z,95
2018-01-28T11:14:11.996Z,110
2018-01-28T11:14:37.497Z,120
2018-01-28T11:15:03.024Z,120
2018-01-28T11:15:28.511Z,120
2018-01-28T11:15:54.000Z,125
2018-01-28T11:16:19.491Z,150
2018-01-28T11:16:44.990Z,160
2018-01-28T11:17:10.457Z,170
2018-01-28T11:17:35.968Z,175
2018-01-28T11:18:01.427Z,170
2018-01-28T11:18:26.919Z,155
2018-01-28T11:18:52.369Z,165
2018-01-28T11:19:17.883Z,155
2018-01-28T11:19:43.311Z,150
2018-01-28T11:21:10.072Z,175
2018-01-28T11:21:35.545Z,160
2018-01-28T11:22:01.014Z,160
2018-01-28T11:22:26.453Z,165
2018-01-28T11:23:35.168Z,155
2018-01-28T11:24:00.687Z,145
2018-01-28T11:24:26.152Z,150
2018-01-28T11:24:51.598Z,150
2018-01-28T11:25:17.058Z,155
2018-01-28T11:25:42.555Z,150
2018-01-28T11:26:08.009Z,140
2018-01-28T11:26:33.542Z,135
2018-01-28T11:26:59.044Z,125
2018-01-28T11:27:24.550Z,125
2018-01-28T11:27:50.058Z,125
2018-01-28T11:28:15.529Z,110
2018-01-28T11:28:40.949Z,105
2018-01-28T11:29:06.507Z,125
2018-01-28T11:29:31.967Z,130
2018-01-28T11:29:57.483Z,140
2018-01-28T11:30:22.920Z,145
2018-01-28T11:30:48.482Z,130
2018-01-28T11:31:13.937Z,115
2018-01-28T11:31:39.499Z,130
2018-01-28T11:32:05.011Z,130
2018-01-28T11:32:30.488Z,135
2018-01-28T11:32:56.100Z,135
2018-01-28T11:33:21.716Z,140
2018-01-28T11:33:47.242Z,145
2018-01-28T11:34:12.795Z,135
2018-01-28T11:34:38.203Z,130
2018-01-28T11:35:03.708Z,135
2018-01-28T11:35:29.196Z,140
2018-01-28T11:35:54.685Z,135
2018-01-28T11:36:20.162Z,130
2018-01-28T11:36:45.708Z,125
2018-01-28T11:37:11.211Z,125
2018-01-28T11:37:36.709Z,125
2018-01-28T11:38:02.191Z,125
2018-01-28T11:38:27.722Z,125
2018-01-28T11:38:53.183Z,125
2018-01-28T11:39:18.738Z,125
2018-01-28T11:39:44.209Z,125
2018-01-28T11:40:09.683Z,125
2018-01-28T11:40:35.221Z,125
2018-01-28T11:41:00.698Z,125
2018-01-28T11:41:26.157Z,125
2018-01-28T11:41:51.689Z,130
2018-01-28T11:42:17.160Z,130
2018-01-28T11:42:42.645Z,125
2018-01-28T11:43:08.272Z,120
2018-01-28T11:43:33.810Z,130
2018-01-28T11:43:59.265Z,125
2018-01-28T11:44:24.710Z,120
2018-01-28T11:44:50.302Z,120
2018-01-28T11:45:15.720Z,115